createdAt,value
2018-11-28T00:00:16.371Z,1020.72
2018-11-28T00:02:10.312Z,1020.74
2018-11-28T00:03:09.277Z,1020.72
2018-11-28T00:05:02.189Z,1020.74
2018-11-28T00:06:02.227Z,1020.78
2018-11-28T00:07:55.278Z,1020.83
2018-11-28T00:08:55.116Z,1020.80
2018-11-28T00:10:48.026Z,1020.75
2018-11-28T00:11:48.045Z,1020.81
2018-11-28T00:13:41.271Z,1020.77
2018-11-28T00:14:40.958Z,1020.82
2018-11-28T00:16:33.873Z,1020.84
2018-11-28T00:17:33.878Z,1020.83
2018-11-28T00:19:27.077Z,1020.85
2018-11-28T00:20:26.820Z,1020.86
2018-11-28T00:22:19.713Z,1020.85
2018-11-28T00:23:19.725Z,1020.90
2018-11-28T00:25:12.911Z,1020.94
2018-11-28T00:26:12.655Z,1020.98
2018-11-28T00:28:06.100Z,1020.98
2018-11-28T00:29:05.571Z,1020.99
2018-11-28T00:30:58.744Z,1021.06
2018-11-28T00:31:58.495Z,1021.07
2018-11-28T00:33:51.402Z,1021.09
2018-11-28T00:34:51.422Z,1021.13
2018-11-28T00:36:44.586Z,1021.13
2018-11-28T00:37:44.336Z,1021.17
2018-11-28T00:39:37.260Z,1021.22
2018-11-28T00:40:37.266Z,1021.22
2018-11-28T00:42:30.464Z,1021.25
2018-11-28T00:43:30.203Z,1021.28
2018-11-28T00:45:23.676Z,1021.29
2018-11-28T00:46:23.114Z,1021.31
2018-11-28T00:48:16.314Z,1021.35
2018-11-28T00:49:16.042Z,1021.36
2018-11-28T00:51:08.952Z,1021.39
2018-11-28T00:52:08.963Z,1021.38
2018-11-28T00:54:02.152Z,1021.39
2018-11-28T00:55:01.880Z,1021.47
2018-11-28T00:56:54.789Z,1021.46
2018-11-28T00:57:54.800Z,1021.52
2018-11-28T00:59:47.903Z,1021.51
2018-11-28T01:00:47.724Z,1021.54
2018-11-28T01:02:40.622Z,1021.52
2018-11-28T01:03:40.662Z,1021.58
2018-11-28T01:05:33.813Z,1021.59
2018-11-28T01:06:33.552Z,1021.57
2018-11-28T01:08:26.459Z,1021.55
2018-11-28T01:09:26.484Z,1021.58
2018-11-28T01:11:19.557Z,1021.59
2018-11-28T01:12:19.414Z,1021.60
2018-11-28T01:14:12.303Z,1021.59
2018-11-28T01:15:12.321Z,1021.60
2018-11-28T01:17:05.483Z,1021.59
2018-11-28T01:18:05.235Z,1021.62
2018-11-28T01:19:58.137Z,1021.64
2018-11-28T01:20:58.144Z,1021.61
2018-11-28T01:22:51.157Z,1021.61
2018-11-28T01:23:51.077Z,1021.68
2018-11-28T01:25:44.961Z,1021.62
2018-11-28T01:26:44.978Z,1021.60
2018-11-28T01:28:38.049Z,1021.59
2018-11-28T01:29:37.887Z,1021.63
2018-11-28T01:31:31.371Z,1021.65
2018-11-28T01:32:30.804Z,1021.66
2018-11-28T01:34:24.760Z,1021.66
2018-11-28T01:35:23.722Z,1021.67
2018-11-28T01:37:17.172Z,1021.68
2018-11-28T01:38:16.637Z,1021.65
2018-11-28T01:40:09.844Z,1021.64
2018-11-28T01:41:09.573Z,1021.62
2018-11-28T01:43:02.476Z,1021.67
2018-11-28T01:44:02.487Z,1021.67
2018-11-28T01:45:55.578Z,1021.71
2018-11-28T01:46:55.421Z,1021.69
2018-11-28T01:48:48.389Z,1021.72
2018-11-28T01:49:48.326Z,1021.69
2018-11-28T01:51:41.400Z,1021.76
2018-11-28T01:52:41.250Z,1021.75
2018-11-28T01:54:34.158Z,1021.71
2018-11-28T01:55:34.158Z,1021.69
2018-11-28T01:57:27.346Z,1021.64
2018-11-28T01:58:27.126Z,1021.67
2018-11-28T02:00:20.017Z,1021.73
2018-11-28T02:01:20.014Z,1021.75
2018-11-28T02:03:13.247Z,1021.75
2018-11-28T02:04:12.937Z,1021.74
2018-11-28T02:06:05.865Z,1021.71
2018-11-28T02:07:05.864Z,1021.73
2018-11-28T02:08:59.058Z,1021.71
2018-11-28T02:09:58.804Z,1021.78
2018-11-28T02:11:52.238Z,1021.73
2018-11-28T02:12:51.705Z,1021.74
2018-11-28T02:14:44.888Z,1021.74
2018-11-28T02:15:44.634Z,1021.73
2018-11-28T02:17:37.543Z,1021.78
2018-11-28T02:18:37.558Z,1021.75
2018-11-28T02:20:30.652Z,1021.73
2018-11-28T02:21:30.484Z,1021.73
2018-11-28T02:23:23.389Z,1021.70
2018-11-28T02:24:23.398Z,1021.71
2018-11-28T02:26:16.569Z,1021.71
2018-11-28T02:27:16.329Z,1021.68
2018-11-28T02:29:09.240Z,1021.68
2018-11-28T02:30:09.252Z,1021.67
2018-11-28T02:32:03.205Z,1021.62
2018-11-28T02:33:02.165Z,1021.63
2018-11-28T02:34:55.082Z,1021.61
2018-11-28T02:35:55.086Z,1021.63
2018-11-28T02:37:48.263Z,1021.61
2018-11-28T02:38:48.010Z,1021.61
2018-11-28T02:40:41.909Z,1021.58
2018-11-28T02:41:41.910Z,1021.61
2018-11-28T02:43:34.934Z,1021.55
2018-11-28T02:44:34.854Z,1021.56
2018-11-28T02:46:27.756Z,1021.53
2018-11-28T02:47:27.773Z,1021.50
2018-11-28T02:49:20.834Z,1021.49
2018-11-28T02:50:20.682Z,1021.50
2018-11-28T02:52:13.601Z,1021.49
2018-11-28T02:53:13.606Z,1021.49
2018-11-28T02:55:07.017Z,1021.48
2018-11-28T02:56:06.744Z,1021.45
2018-11-28T02:57:59.648Z,1021.44
2018-11-28T02:58:59.670Z,1021.44
2018-11-28T03:00:52.853Z,1021.40
2018-11-28T03:01:52.584Z,1021.37
2018-11-28T03:03:45.498Z,1021.36
2018-11-28T03:04:45.518Z,1021.39
2018-11-28T03:06:49.647Z,1021.36
2018-11-28T03:07:38.458Z,1021.34
2018-11-28T09:11:03.161Z,1017.61
2018-11-28T09:12:02.885Z,1017.59
2018-11-28T09:13:55.791Z,1017.59
2018-11-28T09:14:55.799Z,1017.65
2018-11-28T09:16:48.867Z,1017.63
2018-11-28T09:17:48.704Z,1017.64
2018-11-28T09:19:41.616Z,1017.66
2018-11-28T09:20:41.617Z,1017.66
2018-11-28T09:22:34.790Z,1017.67
2018-11-28T09:23:34.536Z,1017.68
2018-11-28T09:25:27.464Z,1017.67
2018-11-28T09:26:27.464Z,1017.69
2018-11-28T09:28:20.655Z,1017.70
2018-11-28T09:29:20.383Z,1017.70
2018-11-28T09:31:13.329Z,1017.72
2018-11-28T09:32:13.340Z,1017.70
2018-11-28T09:34:06.510Z,1017.68
2018-11-28T09:35:06.264Z,1017.71
2018-11-28T09:36:59.183Z,1017.75
2018-11-28T09:37:59.197Z,1017.75
2018-11-28T09:40:13.374Z,1017.76
2018-11-28T09:40:52.133Z,1017.81
2018-11-28T09:42:45.035Z,1017.82
2018-11-28T09:43:45.048Z,1017.81
2018-11-28T09:45:51.700Z,1017.83
2018-11-28T09:46:37.969Z,1017.84
2018-11-28T09:48:30.886Z,1017.86
2018-11-28T09:49:30.978Z,1017.85
2018-11-28T09:51:24.091Z,1017.89
2018-11-28T09:52:23.839Z,1017.87
2018-11-28T09:54:16.748Z,1017.88
2018-11-28T09:55:16.761Z,1017.91
2018-11-28T09:57:09.952Z,1017.89
2018-11-28T09:58:09.698Z,1017.90
2018-11-28T10:00:02.631Z,1017.89
2018-11-28T10:01:02.629Z,1017.92
2018-11-28T10:02:58.795Z,1017.92
2018-11-28T10:03:55.544Z,1017.93
2018-11-28T10:05:48.521Z,1017.90
2018-11-28T10:06:48.474Z,1017.93
2018-11-28T10:08:41.654Z,1017.93
2018-11-28T10:09:41.402Z,1017.95
2018-11-28T10:11:34.316Z,1017.96
2018-11-28T10:12:34.334Z,1017.98
2018-11-28T10:14:27.510Z,1017.98
2018-11-28T10:15:27.265Z,1018.00
2018-11-28T10:17:20.174Z,1018.02
2018-11-28T10:18:20.192Z,1018.05
2018-11-28T10:20:13.270Z,1018.06
2018-11-28T10:21:13.117Z,1018.09
2018-11-28T10:23:06.022Z,1018.09
2018-11-28T10:24:06.046Z,1018.07
2018-11-28T10:25:59.135Z,1018.12
2018-11-28T10:26:58.986Z,1018.09
2018-11-28T10:28:51.909Z,1018.13
2018-11-28T10:29:51.921Z,1018.16
2018-11-28T10:31:44.997Z,1018.17
2018-11-28T10:32:44.844Z,1018.18
2018-11-28T10:34:37.763Z,1018.20
2018-11-28T10:35:37.766Z,1018.22
2018-11-28T10:37:31.027Z,1018.22
2018-11-28T10:38:30.697Z,1018.24
2018-11-28T10:40:23.672Z,1018.25
2018-11-28T10:41:23.635Z,1018.26
2018-11-28T10:43:16.799Z,1018.29
2018-11-28T10:44:16.556Z,1018.29
2018-11-28T10:46:09.481Z,1018.33
2018-11-28T10:47:09.487Z,1018.32
2018-11-28T10:49:02.478Z,1018.32
2018-11-28T10:50:02.428Z,1018.33
2018-11-28T10:51:55.333Z,1018.36
2018-11-28T10:52:55.385Z,1018.38
2018-11-28T10:54:48.349Z,1018.40
2018-11-28T10:55:48.284Z,1018.39
2018-11-28T10:57:41.201Z,1018.45
2018-11-28T10:58:41.206Z,1018.46
2018-11-28T11:00:34.503Z,1018.45
2018-11-28T11:01:34.137Z,1018.43
2018-11-28T11:03:27.052Z,1018.46
2018-11-28T11:04:27.118Z,1018.49
2018-11-28T11:06:20.190Z,1018.50
2018-11-28T11:07:20.000Z,1018.51
2018-11-28T11:09:12.926Z,1018.54
2018-11-28T11:10:12.933Z,1018.54
2018-11-28T11:12:06.028Z,1018.57
2018-11-28T11:13:05.859Z,1018.55
2018-11-28T11:14:58.820Z,1018.57
2018-11-28T11:15:58.786Z,1018.57
2018-11-28T11:17:51.963Z,1018.62
2018-11-28T11:18:51.715Z,1018.62
2018-11-28T11:20:44.629Z,1018.62
2018-11-28T11:21:44.632Z,1018.64
2018-11-28T11:24:02.387Z,1018.64
2018-11-28T11:24:37.557Z,1018.69
2018-11-28T11:26:30.476Z,1018.70
2018-11-28T11:27:30.483Z,1018.71
2018-11-28T11:29:23.607Z,1018.73
2018-11-28T11:30:23.458Z,1018.72
2018-11-28T11:32:16.417Z,1018.74
2018-11-28T11:33:16.375Z,1018.75
2018-11-28T11:35:09.552Z,1018.81
2018-11-28T11:36:09.302Z,1018.80
2018-11-28T11:38:02.222Z,1018.85
2018-11-28T11:39:02.235Z,1018.87
2018-11-28T11:40:55.223Z,1018.90
2018-11-28T11:41:55.162Z,1018.88
2018-11-28T11:43:48.065Z,1018.87
2018-11-28T11:44:48.081Z,1018.89
2018-11-28T11:46:41.087Z,1018.90
2018-11-28T11:47:41.010Z,1018.91
2018-11-28T11:49:33.919Z,1018.91
2018-11-28T11:50:33.938Z,1018.91
2018-11-28T11:52:27.591Z,1018.94
2018-11-28T11:53:26.865Z,1018.91
2018-11-28T11:55:19.791Z,1018.95
2018-11-28T11:56:19.797Z,1018.98
2018-11-28T11:58:12.969Z,1019.03
2018-11-28T11:59:12.728Z,1019.02
2018-11-28T12:01:05.636Z,1019.07
2018-11-28T12:02:05.655Z,1019.10
2018-11-28T12:03:58.798Z,1019.10
2018-11-28T12:04:58.593Z,1019.10
2018-11-28T12:06:51.503Z,1019.13
2018-11-28T12:07:51.518Z,1019.15
2018-11-28T12:09:44.588Z,1019.17
2018-11-28T12:10:44.442Z,1019.23
2018-11-28T12:12:37.365Z,1019.22
2018-11-28T12:13:37.376Z,1019.19
2018-11-28T12:15:46.541Z,1019.25
2018-11-28T12:16:30.302Z,1019.25
2018-11-28T12:18:23.219Z,1019.27
2018-11-28T12:19:23.253Z,1019.28
2018-11-28T12:21:16.399Z,1019.32
2018-11-28T12:22:16.152Z,1019.32
2018-11-28T12:24:09.076Z,1019.34
2018-11-28T12:25:09.081Z,1019.33
2018-11-28T12:27:02.167Z,1019.40
2018-11-28T12:28:02.002Z,1019.43
2018-11-28T12:29:54.923Z,1019.41
2018-11-28T12:30:54.937Z,1019.42
2018-11-28T12:32:48.098Z,1019.46
2018-11-28T12:33:47.859Z,1019.47
2018-11-28T12:35:40.771Z,1019.46
2018-11-28T12:36:40.800Z,1019.52
2018-11-28T12:38:34.013Z,1019.52
2018-11-28T12:39:33.714Z,1019.55
2018-11-28T12:41:26.625Z,1019.62
2018-11-28T12:42:26.645Z,1019.60
2018-11-28T12:44:20.601Z,1019.63
2018-11-28T12:45:19.573Z,1019.61
2018-11-28T12:47:12.488Z,1019.66
2018-11-28T12:48:12.492Z,1019.67
2018-11-28T12:51:37.037Z,1019.71
2018-11-28T12:52:37.049Z,1019.70
2018-11-28T12:54:30.542Z,1019.72
2018-11-28T12:55:30.026Z,1019.70
2018-11-28T12:57:27.716Z,1019.74
2018-11-28T12:58:22.900Z,1019.75
2018-11-28T13:00:15.819Z,1019.75
2018-11-28T13:01:15.843Z,1019.77
2018-11-28T13:03:08.917Z,1019.77
2018-11-28T13:04:08.758Z,1019.78
2018-11-28T13:06:01.720Z,1019.77
2018-11-28T13:07:01.726Z,1019.79
2018-11-28T13:08:54.919Z,1019.78
2018-11-28T13:09:54.660Z,1019.86
2018-11-28T13:11:47.565Z,1019.86
2018-11-28T13:12:47.581Z,1019.87
2018-11-28T13:14:40.762Z,1019.88
2018-11-28T13:15:40.501Z,1019.92
2018-11-28T13:17:33.415Z,1019.93
2018-11-28T13:18:33.501Z,1019.93
2018-11-28T13:20:37.097Z,1019.94
2018-11-28T13:21:26.352Z,1019.94
2018-11-28T13:23:19.259Z,1019.97
2018-11-28T13:24:19.276Z,1020.00
2018-11-28T13:26:12.277Z,1020.01
2018-11-28T13:27:12.202Z,1020.03
2018-11-28T13:29:05.117Z,1020.04
2018-11-28T13:30:05.161Z,1020.05
2018-11-28T13:32:19.315Z,1020.12
2018-11-28T13:32:58.101Z,1020.11
2018-11-28T13:34:50.997Z,1020.13
2018-11-28T13:35:51.011Z,1020.14
2018-11-28T13:37:44.024Z,1020.16
2018-11-28T13:38:43.983Z,1020.19
2018-11-28T13:40:36.859Z,1020.17
2018-11-28T13:41:36.875Z,1020.19
2018-11-28T13:43:29.870Z,1020.17
2018-11-28T13:44:29.788Z,1020.19
2018-11-28T13:46:22.710Z,1020.26
2018-11-28T13:47:22.714Z,1020.22
2018-11-28T13:49:15.911Z,1020.30
2018-11-28T13:50:15.640Z,1020.26
2018-11-28T13:52:08.558Z,1020.26
2018-11-28T13:53:08.572Z,1020.29
2018-11-28T13:55:37.424Z,1020.31
2018-11-28T13:57:54.981Z,1020.31
2018-11-28T13:58:54.429Z,1020.35
2018-11-28T14:00:47.605Z,1020.35
2018-11-28T14:01:47.344Z,1020.33
2018-11-28T14:03:40.301Z,1020.34
2018-11-28T14:04:40.267Z,1020.35
2018-11-28T14:06:33.459Z,1020.36
2018-11-28T14:07:33.201Z,1020.39
2018-11-28T14:09:26.174Z,1020.40
2018-11-28T14:10:26.185Z,1020.41
2018-11-28T14:12:31.940Z,1020.42
2018-11-28T14:13:19.108Z,1020.43
2018-11-28T14:15:12.031Z,1020.42
2018-11-28T14:16:12.032Z,1020.43
2018-11-28T14:18:05.993Z,1020.42
2018-11-28T14:19:04.967Z,1020.41
2018-11-28T14:20:57.881Z,1020.44
2018-11-28T14:21:57.889Z,1020.45
2018-11-28T14:23:50.990Z,1020.46
2018-11-28T14:24:50.814Z,1020.45
2018-11-28T14:26:43.736Z,1020.45
2018-11-28T14:27:43.746Z,1020.42
2018-11-28T14:29:36.943Z,1020.44
2018-11-28T14:30:36.666Z,1020.42
2018-11-28T14:32:29.575Z,1020.44
2018-11-28T14:33:29.586Z,1020.41
2018-11-28T14:35:22.580Z,1020.39
2018-11-28T14:36:22.511Z,1020.39
2018-11-28T14:38:15.435Z,1020.39
2018-11-28T14:39:15.438Z,1020.40
2018-11-28T14:41:09.407Z,1020.41
2018-11-28T14:42:08.364Z,1020.41
2018-11-28T14:44:01.277Z,1020.44
2018-11-28T14:45:01.288Z,1020.42
2018-11-28T14:46:54.465Z,1020.42
2018-11-28T14:47:54.222Z,1020.39
2018-11-28T14:49:47.676Z,1020.41
2018-11-28T14:50:47.149Z,1020.40
2018-11-28T14:52:40.325Z,1020.41
2018-11-28T14:53:40.063Z,1020.39
2018-11-28T14:55:32.980Z,1020.33
2018-11-28T14:56:32.988Z,1020.37
2018-11-28T14:58:27.584Z,1020.34
2018-11-28T14:59:26.114Z,1020.34
2018-11-28T15:01:19.105Z,1020.35
2018-11-28T15:02:19.121Z,1020.34
2018-11-28T15:04:12.311Z,1020.36
2018-11-28T15:05:12.085Z,1020.37
2018-11-28T15:07:04.967Z,1020.30
2018-11-28T15:08:04.974Z,1020.35
2018-11-28T15:09:57.978Z,1020.36
2018-11-28T15:10:57.911Z,1020.38
2018-11-28T15:12:50.832Z,1020.35
2018-11-28T15:13:50.831Z,1020.36
2018-11-28T15:15:44.088Z,1020.34
2018-11-28T15:16:43.814Z,1020.31
2018-11-28T15:18:36.682Z,1020.33
2018-11-28T15:19:36.698Z,1020.32
2018-11-28T15:21:30.643Z,1020.36
2018-11-28T15:22:29.604Z,1020.35
2018-11-28T15:24:22.520Z,1020.37
2018-11-28T15:25:22.538Z,1020.34
2018-11-28T15:27:15.805Z,1020.33
2018-11-28T15:28:15.482Z,1020.31
2018-11-28T15:30:08.394Z,1020.31
2018-11-28T15:31:08.407Z,1020.28
2018-11-28T15:33:01.652Z,1020.29
2018-11-28T15:34:01.328Z,1020.28
2018-11-28T15:35:54.311Z,1020.33
2018-11-28T15:36:54.315Z,1020.30
2018-11-28T15:38:47.494Z,1020.32
2018-11-28T15:39:47.239Z,1020.33
2018-11-28T15:41:40.153Z,1020.37
2018-11-28T15:42:40.164Z,1020.37
2018-11-28T15:44:34.126Z,1020.33
2018-11-28T15:45:33.093Z,1020.32
2018-11-28T15:47:26.015Z,1020.36
2018-11-28T15:48:26.024Z,1020.34
2018-11-28T15:50:19.009Z,1020.36
2018-11-28T15:51:18.941Z,1020.37
2018-11-28T15:53:12.403Z,1020.41
2018-11-28T15:54:11.869Z,1020.40
2018-11-28T15:56:05.106Z,1020.45
2018-11-28T15:57:04.788Z,1020.47
2018-11-28T15:58:57.705Z,1020.44
2018-11-28T15:59:57.715Z,1020.44
2018-11-28T16:01:50.814Z,1020.45
2018-11-28T16:02:50.634Z,1020.44
2018-11-28T16:04:43.559Z,1020.44
2018-11-28T16:05:43.567Z,1020.44
2018-11-28T16:07:36.746Z,1020.44
2018-11-28T16:08:36.490Z,1020.43
2018-11-28T16:10:29.414Z,1020.42
2018-11-28T16:11:29.418Z,1020.43
2018-11-28T16:13:22.419Z,1020.40
2018-11-28T16:14:22.344Z,1020.41
2018-11-28T16:16:15.311Z,1020.40
2018-11-28T16:17:15.280Z,1020.43
2018-11-28T16:19:08.367Z,1020.39
2018-11-28T16:20:08.198Z,1020.39
2018-11-28T16:22:01.109Z,1020.36
2018-11-28T16:23:04.149Z,1020.38
2018-11-28T16:24:54.210Z,1020.39
2018-11-28T16:25:54.047Z,1020.38
2018-11-28T16:27:46.954Z,1020.36
2018-11-28T16:28:46.970Z,1020.34
2018-11-28T16:30:40.147Z,1020.33
2018-11-28T16:31:39.889Z,1020.32
2018-11-28T16:33:32.816Z,1020.30
2018-11-28T16:34:32.823Z,1020.24
2018-11-28T16:36:26.039Z,1020.23
2018-11-28T16:37:25.748Z,1020.24
2018-11-28T16:39:18.665Z,1020.21
2018-11-28T16:40:18.672Z,1020.19
2018-11-28T16:42:11.757Z,1020.16
2018-11-28T16:43:11.592Z,1020.15
2018-11-28T16:45:04.573Z,1020.14
2018-11-28T16:46:04.527Z,1020.11
2018-11-28T16:47:57.741Z,1020.12
2018-11-28T16:48:57.435Z,1020.05
2018-11-28T16:50:50.358Z,1020.09
2018-11-28T16:51:50.368Z,1020.07
2018-11-28T16:53:43.435Z,1020.06
2018-11-28T16:54:43.288Z,1020.06
2018-11-28T16:56:36.200Z,1020.08
2018-11-28T16:57:36.209Z,1020.11
2018-11-28T16:59:30.853Z,1020.13
2018-11-28T17:00:29.133Z,1020.07
2018-11-28T17:02:22.050Z,1020.09
2018-11-28T17:03:22.064Z,1020.12
2018-11-28T17:05:16.034Z,1020.09
2018-11-28T17:06:14.989Z,1020.12
2018-11-28T17:08:08.447Z,1020.12
2018-11-28T17:09:07.907Z,1020.14
2018-11-28T17:11:01.113Z,1020.19
2018-11-28T17:12:00.833Z,1020.18
2018-11-28T17:13:54.322Z,1020.20
2018-11-28T17:14:53.750Z,1020.23
2018-11-28T17:16:46.926Z,1020.18
2018-11-28T17:17:46.676Z,1020.23
2018-11-28T17:19:39.595Z,1020.15
2018-11-28T17:20:39.598Z,1020.15
2018-11-28T17:22:32.824Z,1020.18
2018-11-28T17:23:32.528Z,1020.15
2018-11-28T17:25:25.446Z,1020.15
2018-11-28T17:26:25.442Z,1020.16
2018-11-28T17:28:18.516Z,1020.12
2018-11-28T17:29:18.363Z,1020.14
2018-11-28T17:31:11.297Z,1020.09
2018-11-28T17:32:11.293Z,1020.09
2018-11-28T17:34:04.472Z,1020.13
2018-11-28T17:35:04.232Z,1020.11
2018-11-28T17:36:57.126Z,1020.11
2018-11-28T17:37:57.140Z,1020.13
2018-11-28T17:39:50.692Z,1020.11
2018-11-28T17:40:50.092Z,1020.13
2018-11-28T17:42:42.973Z,1020.12
2018-11-28T17:43:42.998Z,1020.11
2018-11-28T17:45:36.070Z,1020.09
2018-11-28T17:46:35.913Z,1020.08
2018-11-28T17:48:28.845Z,1020.12
2018-11-28T17:49:28.831Z,1020.10
2018-11-28T17:51:21.918Z,1020.08
2018-11-28T17:52:21.756Z,1020.11
2018-11-28T17:54:15.763Z,1020.07
2018-11-28T17:55:14.683Z,1020.08
2018-11-28T17:57:07.765Z,1020.07
2018-11-28T17:58:07.609Z,1020.07
2018-11-28T18:00:00.520Z,1020.03
2018-11-28T18:01:00.522Z,1020.02
2018-11-28T18:02:53.694Z,1020.03
2018-11-28T18:03:53.446Z,1020.01
2018-11-28T18:05:46.355Z,1019.99
2018-11-28T18:06:46.367Z,1019.99
2018-11-28T18:08:39.452Z,1019.94
2018-11-28T18:09:39.283Z,1019.92
2018-11-28T18:11:32.205Z,1019.93
2018-11-28T18:12:32.208Z,1019.91
2018-11-28T18:14:25.191Z,1019.92
2018-11-28T18:15:25.139Z,1019.89
2018-11-28T18:17:18.048Z,1019.91
2018-11-28T18:18:18.068Z,1019.90
2018-11-28T18:20:11.136Z,1019.88
2018-11-28T18:21:10.983Z,1019.88
2018-11-28T18:23:03.888Z,1019.90
2018-11-28T18:24:03.897Z,1019.88
2018-11-28T18:25:56.880Z,1019.82
2018-11-28T18:26:56.821Z,1019.83
2018-11-28T18:28:49.732Z,1019.88
2018-11-28T18:29:49.742Z,1019.86
2018-11-28T18:31:42.829Z,1019.86
2018-11-28T18:32:42.670Z,1019.83
2018-11-28T18:34:35.586Z,1019.82
2018-11-28T18:35:35.595Z,1019.80
2018-11-28T18:37:35.661Z,1019.83
2018-11-28T18:38:28.516Z,1019.80
2018-11-28T18:40:21.429Z,1019.77
2018-11-28T18:41:21.441Z,1019.77
2018-11-28T18:43:14.518Z,1019.76
2018-11-28T18:44:14.363Z,1019.78
2018-11-28T18:46:07.275Z,1019.79
2018-11-28T18:47:07.292Z,1019.81
2018-11-28T18:49:00.450Z,1019.82
2018-11-28T18:50:00.210Z,1019.80
2018-11-28T18:51:53.174Z,1019.85
2018-11-28T18:52:53.192Z,1019.85
2018-11-28T18:54:46.267Z,1019.85
2018-11-28T18:55:46.123Z,1019.85
2018-11-28T18:57:39.018Z,1019.88
2018-11-28T18:58:39.034Z,1019.87
2018-11-28T19:00:32.106Z,1019.87
2018-11-28T19:01:31.963Z,1019.88
2018-11-28T19:03:25.435Z,1019.83
2018-11-28T19:04:24.871Z,1019.82
2018-11-28T19:06:17.852Z,1019.76
2018-11-28T19:07:17.796Z,1019.78
2018-11-28T19:09:10.701Z,1019.70
2018-11-28T19:10:10.716Z,1019.71
2018-11-28T19:12:03.886Z,1019.72
2018-11-28T19:13:03.632Z,1019.70
2018-11-28T19:14:56.561Z,1019.72
2018-11-28T19:15:56.599Z,1019.69
2018-11-28T19:17:49.726Z,1019.73
2018-11-28T19:18:49.481Z,1019.69
2018-11-28T19:20:42.381Z,1019.68
2018-11-28T19:21:42.398Z,1019.67
2018-11-28T19:23:35.385Z,1019.71
2018-11-28T19:24:35.313Z,1019.70
2018-11-28T19:26:28.241Z,1019.71
2018-11-28T19:27:28.242Z,1019.69
2018-11-28T19:29:21.405Z,1019.74
2018-11-28T19:30:21.167Z,1019.73
2018-11-28T19:32:14.071Z,1019.73
2018-11-28T19:33:14.087Z,1019.76
2018-11-28T19:35:07.262Z,1019.75
2018-11-28T19:36:07.199Z,1019.75
2018-11-28T19:38:00.136Z,1019.76
2018-11-28T19:39:00.126Z,1019.77
2018-11-28T19:40:53.292Z,1019.76
2018-11-28T19:41:53.046Z,1019.76
2018-11-28T19:43:46.014Z,1019.76
2018-11-28T19:44:45.965Z,1019.78
2018-11-28T19:46:39.195Z,1019.75
2018-11-28T19:47:38.901Z,1019.82
2018-11-28T19:49:31.809Z,1019.81
2018-11-28T19:50:31.815Z,1019.79
2018-11-28T19:52:24.908Z,1019.77
2018-11-28T19:53:24.739Z,1019.73
2018-11-28T19:55:17.646Z,1019.74
2018-11-28T19:56:17.662Z,1019.75
2018-11-28T19:58:10.714Z,1019.75
2018-11-28T19:59:10.643Z,1019.76
2018-11-28T20:01:03.551Z,1019.72
2018-11-28T20:02:03.568Z,1019.71
2018-11-28T20:03:56.661Z,1019.70
2018-11-28T20:04:56.487Z,1019.70
2018-11-28T20:06:49.403Z,1019.75
2018-11-28T20:07:49.422Z,1019.75
2018-11-28T20:09:42.476Z,1019.76
2018-11-28T20:10:42.327Z,1019.73
2018-11-28T20:12:35.288Z,1019.76
2018-11-28T20:13:35.244Z,1019.74
2018-11-28T20:15:28.303Z,1019.74
2018-11-28T20:16:28.166Z,1019.77
2018-11-28T20:18:21.070Z,1019.79
2018-11-28T20:19:21.088Z,1019.80
2018-11-28T20:21:19.143Z,1019.81
2018-11-28T20:22:14.012Z,1019.80
2018-11-28T20:24:06.922Z,1019.82
2018-11-28T20:25:06.937Z,1019.81
2018-11-28T20:27:00.020Z,1019.85
2018-11-28T20:27:59.856Z,1019.82
2018-11-28T20:29:53.337Z,1019.83
2018-11-28T20:30:52.971Z,1019.82
2018-11-28T20:32:46.055Z,1019.87
2018-11-28T20:33:45.892Z,1019.88
2018-11-28T20:35:38.802Z,1019.87
2018-11-28T20:36:38.808Z,1019.90
2018-11-28T20:38:31.977Z,1019.91
2018-11-28T20:39:31.728Z,1019.90
2018-11-28T20:41:25.225Z,1019.92
2018-11-28T20:42:24.659Z,1019.88
2018-11-28T20:44:17.736Z,1019.90
2018-11-28T20:45:17.577Z,1019.87
2018-11-28T20:47:10.486Z,1019.87
2018-11-28T20:48:10.499Z,1019.87
2018-11-28T20:50:03.672Z,1019.90
2018-11-28T20:51:03.490Z,1019.90
2018-11-28T20:52:56.334Z,1019.92
2018-11-28T20:53:56.348Z,1019.93
2018-11-28T20:55:54.580Z,1019.98
2018-11-28T20:56:49.270Z,1019.99
2018-11-28T20:58:42.188Z,1019.95
2018-11-28T20:59:42.240Z,1019.96
2018-11-28T21:01:35.366Z,1019.98
2018-11-28T21:02:35.108Z,1020.01
2018-11-28T21:04:28.034Z,1020.04
2018-11-28T21:05:28.046Z,1020.00
2018-11-28T21:07:21.021Z,1020.04
2018-11-28T21:08:20.975Z,1020.04
2018-11-28T21:10:13.892Z,1020.05
2018-11-28T21:11:13.900Z,1020.05
2018-11-28T21:13:06.881Z,1020.09
2018-11-28T21:14:06.817Z,1020.07
2018-11-28T21:15:59.724Z,1020.10
2018-11-28T21:16:59.763Z,1020.11
2018-11-28T21:18:52.890Z,1020.09
2018-11-28T21:19:52.679Z,1020.08
2018-11-28T21:21:45.567Z,1020.12
2018-11-28T21:22:45.582Z,1020.10
2018-11-28T21:24:38.646Z,1020.08
2018-11-28T21:25:38.504Z,1020.09
2018-11-28T21:27:31.411Z,1020.11
2018-11-28T21:28:31.416Z,1020.13
2018-11-28T21:30:26.179Z,1020.11
2018-11-28T21:31:24.341Z,1020.12
2018-11-28T21:33:17.248Z,1020.14
2018-11-28T21:34:17.254Z,1020.13
2018-11-28T21:36:10.428Z,1020.14
2018-11-28T21:37:10.181Z,1020.16
2018-11-28T21:39:03.081Z,1020.14
2018-11-28T21:40:03.151Z,1020.15
2018-11-28T21:41:56.191Z,1020.14
2018-11-28T21:42:56.017Z,1020.16
2018-11-28T21:44:48.931Z,1020.19
2018-11-28T21:45:48.943Z,1020.20
2018-11-28T21:47:42.013Z,1020.21
2018-11-28T21:48:41.872Z,1020.23
2018-11-28T21:50:34.769Z,1020.27
2018-11-28T21:51:34.780Z,1020.32
2018-11-28T21:53:27.863Z,1020.31
2018-11-28T21:54:27.710Z,1020.34
2018-11-28T21:56:20.610Z,1020.39
2018-11-28T21:57:20.623Z,1020.42
2018-11-28T21:59:13.699Z,1020.46
2018-11-28T22:00:13.549Z,1020.45
2018-11-28T22:02:06.464Z,1020.45
2018-11-28T22:03:06.466Z,1020.47
2018-11-28T22:04:59.651Z,1020.45
2018-11-28T22:05:59.385Z,1020.48
2018-11-28T22:07:52.307Z,1020.54
2018-11-28T22:08:52.303Z,1020.54
2018-11-28T22:10:45.511Z,1020.58
2018-11-28T22:11:45.229Z,1020.58
2018-11-28T22:13:39.182Z,1020.62
2018-11-28T22:14:38.142Z,1020.62
2018-11-28T22:16:31.222Z,1020.66
2018-11-28T22:17:31.057Z,1020.66
2018-11-28T22:19:23.985Z,1020.67
2018-11-28T22:20:23.999Z,1020.68
2018-11-28T22:22:17.058Z,1020.71
2018-11-28T22:23:16.924Z,1020.70
2018-11-28T22:25:09.835Z,1020.70
2018-11-28T22:26:09.845Z,1020.73
2018-11-28T22:28:10.521Z,1020.76
2018-11-28T22:29:02.765Z,1020.80
2018-11-28T22:30:55.675Z,1020.88
2018-11-28T22:31:55.681Z,1020.89
2018-11-28T22:33:48.668Z,1020.92
2018-11-28T22:34:48.604Z,1020.95
2018-11-28T22:36:42.562Z,1020.91
2018-11-28T22:37:41.523Z,1020.95
2018-11-28T22:39:34.693Z,1021.00
2018-11-28T22:40:34.441Z,1020.99
2018-11-28T22:42:27.355Z,1021.00
2018-11-28T22:43:27.358Z,1021.00
2018-11-28T22:45:20.428Z,1021.08
2018-11-28T22:46:20.282Z,1021.08
2018-11-28T22:48:13.192Z,1021.13
2018-11-28T22:49:13.206Z,1021.15
2018-11-28T22:51:06.295Z,1021.19
2018-11-28T22:52:06.127Z,1021.20
2018-11-28T22:53:59.037Z,1021.20
2018-11-28T22:54:59.046Z,1021.22
2018-11-28T22:56:53.509Z,1021.27
2018-11-28T22:57:51.964Z,1021.28
2018-11-28T22:59:44.872Z,1021.33
2018-11-28T23:00:44.881Z,1021.34
2018-11-28T23:02:37.961Z,1021.33
2018-11-28T23:03:37.797Z,1021.32
2018-11-28T23:05:30.725Z,1021.35
2018-11-28T23:06:30.714Z,1021.38
2018-11-28T23:08:23.925Z,1021.49
2018-11-28T23:09:23.646Z,1021.44
2018-11-28T23:11:16.552Z,1021.51
2018-11-28T23:12:16.560Z,1021.51
2018-11-28T23:14:09.761Z,1021.50
2018-11-28T23:15:09.479Z,1021.55
2018-11-28T23:17:02.931Z,1021.61
2018-11-28T23:18:02.392Z,1021.62
2018-11-28T23:19:55.475Z,1021.68
2018-11-28T23:20:55.315Z,1021.65
2018-11-28T23:22:48.213Z,1021.68
2018-11-28T23:23:48.231Z,1021.68
2018-11-28T23:25:41.420Z,1021.72
2018-11-28T23:26:41.164Z,1021.66
2018-11-28T23:28:34.074Z,1021.72
2018-11-28T23:29:34.087Z,1021.74